Meath Environmental Platform

Observations

Time Sensor AQI SAQ Temp °C Hum % Pres Pa CO μg/m³ H₂S μg/m³ NO μg/m³ NO₂ μg/m³ O₃ μg/m³ SO₂ μg/m³ CO₂e PPM VOC PPM PM1 μg/m³ PM2.5 μg/m³ PM4 μg/m³ PM10 μg/m³ TPS µm
Wednesday 12 August 2026
05:06 Trim Patrick St 2 18.3 72 38,460 0.04 0 1.41 7.93 54.05 0 7.14 10.78 11.85
05:05 Trim Patrick St 2 18.3 72 38,460 0.03 1.08 1.45 14.61 44.66 0 5.43 10.08 11.09
05:03 Trim Patrick St 2 18.3 72 38,460 0.03 0 1.35 6.55 49.23 0 6.29 10.79 11.87
05:02 Trim Patrick St 2 18.3 72 38,460 0.03 0 1.57 11.35 45.97 0 5.43 10.08 11.08
05:01 Trim Patrick St 2 18.3 71 38,460 0.04 0.16 1.34 17.05 48.74 0 7.14 11.53 12.68
05:00 Trim Market St 2 19 67 56,692 0.07 0 1.28 16.25 59.14 0 3.56 5.63 8.17
05:00 Trim Patrick St 2 18.3 72 38,460 0.04 2.18 1.42 11.9 54.83 0 6.29 10.08 11.09
04:59 Trim Patrick St 2 18.4 71 38,460 0.03 1.05 1.33 24.38 53.19 0 6.29 11.56 12.72
04:57 Trim Market St 2 19.1 67 56,715 0.06 0 1.29 12.88 63.02 0 3.56 4.65 8.17
04:56 Trim Market St 2 19.1 67 56,723 0.06 0 1.3 12.07 68.05 0 2.85 5.63 8.82
04:56 Trim Patrick St 2 18.3 71 38,460 0.03 0 1.36 12.7 55.18 0 7.14 10.84 11.93
04:55 Trim Market St 2 19.1 67 56,735 0.06 0 1.37 14.23 64.98 0 2.85 5.14 8.17
04:54 Trim Market St 2 19.1 67 56,746 0.07 0 1.3 10.98 69.34 0 2.14 4.16 6.89
04:53 Trim Market St 2 19.1 67 56,750 0.07 0 1.32 13.11 66.71 0 4.28 5.64 8.17
04:52 Trim Patrick St 2 18.4 72 38,460 0.03 3.36 1.32 27.34 53.38 0 6.29 10.78 11.86
04:52 Trim Market St 2 19.1 67 56,758 0.06 0 1.41 12.62 67.68 0 2.14 4.66 7.53
04:51 Trim Patrick St 2 18.4 70 38,460 0.02 0 1.34 16.29 50.43 0 5.43 8.74 9.61
04:51 Trim Market St 2 19.1 67 56,777 0.07 0 1.3 16.6 61.91 0 2.85 5.15 7.53
04:50 Trim Patrick St 2 18.4 71 38,460 0.02 0 1.3 6.38 40.5 0 7.14 10.82 11.9
04:50 Trim Market St 2 19.1 67 56,794 0.07 0 1.29 12.73 63.41 0 2.85 5.15 8.82